sensor_id;sensor_type;location;lat;lon;timestamp;temperature;humidity
19017;DHT22;9641;51.494;6.670;2022-10-16T00:01:06;13.90;99.90
19017;DHT22;9641;51.494;6.670;2022-10-16T00:03:34;13.90;99.90
19017;DHT22;9641;51.494;6.670;2022-10-16T00:06:02;14.00;99.90
19017;DHT22;9641;51.494;6.670;2022-10-16T00:08:32;14.00;99.90
19017;DHT22;9641;51.494;6.670;2022-10-16T00:11:02;13.90;99.90
19017;DHT22;9641;51.494;6.670;2022-10-16T00:13:30;14.00;99.90
19017;DHT22;9641;51.494;6.670;2022-10-16T00:15:58;14.00;99.90
19017;DHT22;9641;51.494;6.670;2022-10-16T00:18:27;13.90;99.90
19017;DHT22;9641;51.494;6.670;2022-10-16T00:20:54;13.90;99.90
19017;DHT22;9641;51.494;6.670;2022-10-16T00:23:26;14.00;99.90
19017;DHT22;9641;51.494;6.670;2022-10-16T00:25:59;13.90;99.90
19017;DHT22;9641;51.494;6.670;2022-10-16T00:28:27;14.00;99.90
19017;DHT22;9641;51.494;6.670;2022-10-16T00:30:56;13.90;99.90
19017;DHT22;9641;51.494;6.670;2022-10-16T00:33:23;13.90;99.90
19017;DHT22;9641;51.494;6.670;2022-10-16T00:35:51;14.00;99.90
19017;DHT22;9641;51.494;6.670;2022-10-16T00:38:18;14.00;99.90
19017;DHT22;9641;51.494;6.670;2022-10-16T00:40:47;14.00;99.90
19017;DHT22;9641;51.494;6.670;2022-10-16T00:46:18;13.90;99.90
19017;DHT22;9641;51.494;6.670;2022-10-16T00:48:50;13.90;99.90
19017;DHT22;9641;51.494;6.670;2022-10-16T00:51:21;13.90;99.90
19017;DHT22;9641;51.494;6.670;2022-10-16T00:53:51;13.90;99.90
19017;DHT22;9641;51.494;6.670;2022-10-16T00:56:20;13.80;99.90
19017;DHT22;9641;51.494;6.670;2022-10-16T00:58:48;13.80;99.90
19017;DHT22;9641;51.494;6.670;2022-10-16T01:01:17;13.80;99.90
19017;DHT22;9641;51.494;6.670;2022-10-16T01:03:45;13.80;99.90
19017;DHT22;9641;51.494;6.670;2022-10-16T01:06:21;13.70;99.90
19017;DHT22;9641;51.494;6.670;2022-10-16T01:09:02;13.70;99.90
19017;DHT22;9641;51.494;6.670;2022-10-16T01:11:35;13.70;99.90
19017;DHT22;9641;51.494;6.670;2022-10-16T01:14:24;13.70;99.90
19017;DHT22;9641;51.494;6.670;2022-10-16T01:17:00;13.60;99.90
19017;DHT22;9641;51.494;6.670;2022-10-16T01:19:44;13.60;99.90
19017;DHT22;9641;51.494;6.670;2022-10-16T01:22:17;13.60;99.90
19017;DHT22;9641;51.494;6.670;2022-10-16T01:24:48;13.60;99.90
19017;DHT22;9641;51.494;6.670;2022-10-16T01:27:21;13.60;99.90
19017;DHT22;9641;51.494;6.670;2022-10-16T01:29:53;13.60;99.90
19017;DHT22;9641;51.494;6.670;2022-10-16T01:32:28;13.60;99.90
19017;DHT22;9641;51.494;6.670;2022-10-16T01:35:02;13.60;99.90
19017;DHT22;9641;51.494;6.670;2022-10-16T01:37:35;13.60;99.90
19017;DHT22;9641;51.494;6.670;2022-10-16T01:40:07;13.70;99.90
19017;DHT22;9641;51.494;6.670;2022-10-16T01:42:40;13.70;99.90
19017;DHT22;9641;51.494;6.670;2022-10-16T01:45:12;13.70;99.90
19017;DHT22;9641;51.494;6.670;2022-10-16T01:47:44;13.80;99.90
19017;DHT22;9641;51.494;6.670;2022-10-16T01:50:14;13.90;99.90
19017;DHT22;9641;51.494;6.670;2022-10-16T01:52:46;13.90;99.90
19017;DHT22;9641;51.494;6.670;2022-10-16T01:55:20;13.90;99.90
19017;DHT22;9641;51.494;6.670;2022-10-16T01:57:52;13.90;99.90
19017;DHT22;9641;51.494;6.670;2022-10-16T02:00:21;13.80;99.90
19017;DHT22;9641;51.494;6.670;2022-10-16T02:02:52;13.70;99.90
19017;DHT22;9641;51.494;6.670;2022-10-16T02:05:25;13.60;99.90
19017;DHT22;9641;51.494;6.670;2022-10-16T02:07:54;13.60;99.90
19017;DHT22;9641;51.494;6.670;2022-10-16T02:10:24;13.60;99.90
19017;DHT22;9641;51.494;6.670;2022-10-16T02:12:58;13.60;99.90
19017;DHT22;9641;51.494;6.670;2022-10-16T02:15:32;13.50;99.90
19017;DHT22;9641;51.494;6.670;2022-10-16T02:18:01;13.60;99.90
19017;DHT22;9641;51.494;6.670;2022-10-16T02:20:34;13.60;99.90
19017;DHT22;9641;51.494;6.670;2022-10-16T02:23:03;13.60;99.90
19017;DHT22;9641;51.494;6.670;2022-10-16T02:25:32;13.60;99.90
19017;DHT22;9641;51.494;6.670;2022-10-16T02:28:07;13.60;99.90
19017;DHT22;9641;51.494;6.670;2022-10-16T02:30:41;13.60;99.90
19017;DHT22;9641;51.494;6.670;2022-10-16T02:33:14;13.50;99.90
19017;DHT22;9641;51.494;6.670;2022-10-16T02:35:43;13.50;99.90
19017;DHT22;9641;51.494;6.670;2022-10-16T02:38:12;13.50;99.90
19017;DHT22;9641;51.494;6.670;2022-10-16T02:40:43;13.50;99.90
19017;DHT22;9641;51.494;6.670;2022-10-16T02:43:12;13.40;99.90
19017;DHT22;9641;51.494;6.670;2022-10-16T02:45:39;13.50;99.90
19017;DHT22;9641;51.494;6.670;2022-10-16T02:48:07;13.40;99.90
19017;DHT22;9641;51.494;6.670;2022-10-16T02:50:35;13.40;99.90
19017;DHT22;9641;51.494;6.670;2022-10-16T02:53:02;13.50;99.90
19017;DHT22;9641;51.494;6.670;2022-10-16T02:55:31;13.50;99.90
19017;DHT22;9641;51.494;6.670;2022-10-16T02:57:58;13.50;99.90
19017;DHT22;9641;51.494;6.670;2022-10-16T03:00:29;13.60;99.90
19017;DHT22;9641;51.494;6.670;2022-10-16T03:02:57;13.50;99.90
19017;DHT22;9641;51.494;6.670;2022-10-16T03:05:26;13.60;99.90
19017;DHT22;9641;51.494;6.670;2022-10-16T03:07:53;13.60;99.90
19017;DHT22;9641;51.494;6.670;2022-10-16T03:10:21;13.70;99.90
19017;DHT22;9641;51.494;6.670;2022-10-16T03:12:52;13.70;99.90
19017;DHT22;9641;51.494;6.670;2022-10-16T03:15:20;13.70;99.90
19017;DHT22;9641;51.494;6.670;2022-10-16T03:17:51;13.80;99.90
19017;DHT22;9641;51.494;6.670;2022-10-16T03:20:19;13.80;99.90
19017;DHT22;9641;51.494;6.670;2022-10-16T03:22:48;13.80;99.90
19017;DHT22;9641;51.494;6.670;2022-10-16T03:25:19;13.90;99.90
19017;DHT22;9641;51.494;6.670;2022-10-16T03:27:47;13.90;99.90
19017;DHT22;9641;51.494;6.670;2022-10-16T03:30:14;13.90;99.90
19017;DHT22;9641;51.494;6.670;2022-10-16T03:32:43;13.90;99.90
19017;DHT22;9641;51.494;6.670;2022-10-16T03:35:22;13.90;99.90
19017;DHT22;9641;51.494;6.670;2022-10-16T03:37:50;13.80;99.90
19017;DHT22;9641;51.494;6.670;2022-10-16T03:40:20;13.80;99.90
19017;DHT22;9641;51.494;6.670;2022-10-16T03:42:49;13.80;99.90
19017;DHT22;9641;51.494;6.670;2022-10-16T03:45:17;13.70;99.90
19017;DHT22;9641;51.494;6.670;2022-10-16T03:47:45;13.70;99.90
19017;DHT22;9641;51.494;6.670;2022-10-16T03:50:16;13.70;99.90
19017;DHT22;9641;51.494;6.670;2022-10-16T03:52:45;13.70;99.90
19017;DHT22;9641;51.494;6.670;2022-10-16T03:55:17;13.70;99.90
19017;DHT22;9641;51.494;6.670;2022-10-16T03:57:44;13.70;99.90
19017;DHT22;9641;51.494;6.670;2022-10-16T04:00:12;13.80;99.90
19017;DHT22;9641;51.494;6.670;2022-10-16T04:02:41;13.80;99.90
19017;DHT22;9641;51.494;6.670;2022-10-16T04:05:11;13.80;99.90
19017;DHT22;9641;51.494;6.670;2022-10-16T04:07:39;13.80;99.90
19017;DHT22;9641;51.494;6.670;2022-10-16T04:10:09;13.80;99.90
19017;DHT22;9641;51.494;6.670;2022-10-16T04:12:37;13.80;99.90
19017;DHT22;9641;51.494;6.670;2022-10-16T04:15:05;13.80;99.90
19017;DHT22;9641;51.494;6.670;2022-10-16T04:17:35;13.80;99.90
19017;DHT22;9641;51.494;6.670;2022-10-16T04:20:04;13.70;99.90
19017;DHT22;9641;51.494;6.670;2022-10-16T04:22:33;13.70;99.90
19017;DHT22;9641;51.494;6.670;2022-10-16T04:25:01;13.80;99.90
19017;DHT22;9641;51.494;6.670;2022-10-16T04:27:32;13.80;99.90
19017;DHT22;9641;51.494;6.670;2022-10-16T04:29:59;13.80;99.90
19017;DHT22;9641;51.494;6.670;2022-10-16T04:32:27;13.70;99.90
19017;DHT22;9641;51.494;6.670;2022-10-16T04:34:55;13.70;99.90
19017;DHT22;9641;51.494;6.670;2022-10-16T04:37:23;13.70;99.90
19017;DHT22;9641;51.494;6.670;2022-10-16T04:39:52;13.80;99.90
19017;DHT22;9641;51.494;6.670;2022-10-16T04:42:19;13.70;99.90
19017;DHT22;9641;51.494;6.670;2022-10-16T04:44:49;13.70;99.90
19017;DHT22;9641;51.494;6.670;2022-10-16T04:47:16;13.70;99.90
19017;DHT22;9641;51.494;6.670;2022-10-16T04:49:44;13.70;99.90
19017;DHT22;9641;51.494;6.670;2022-10-16T04:52:12;13.70;99.90
19017;DHT22;9641;51.494;6.670;2022-10-16T04:54:39;13.70;99.90
19017;DHT22;9641;51.494;6.670;2022-10-16T04:57:07;13.70;99.90
19017;DHT22;9641;51.494;6.670;2022-10-16T04:59:35;13.70;99.90
19017;DHT22;9641;51.494;6.670;2022-10-16T05:02:05;13.70;99.90
19017;DHT22;9641;51.494;6.670;2022-10-16T05:04:32;13.70;99.90
19017;DHT22;9641;51.494;6.670;2022-10-16T05:07:01;13.70;99.90
19017;DHT22;9641;51.494;6.670;2022-10-16T05:09:28;13.70;99.90
19017;DHT22;9641;51.494;6.670;2022-10-16T05:11:56;13.70;99.90
19017;DHT22;9641;51.494;6.670;2022-10-16T05:14:24;13.80;99.90
19017;DHT22;9641;51.494;6.670;2022-10-16T05:16:51;13.70;99.90
19017;DHT22;9641;51.494;6.670;2022-10-16T05:19:22;13.70;99.90
19017;DHT22;9641;51.494;6.670;2022-10-16T05:21:49;13.70;99.90
19017;DHT22;9641;51.494;6.670;2022-10-16T05:24:17;13.70;99.90
19017;DHT22;9641;51.494;6.670;2022-10-16T05:26:44;13.70;99.90
19017;DHT22;9641;51.494;6.670;2022-10-16T05:29:11;13.70;99.90
19017;DHT22;9641;51.494;6.670;2022-10-16T05:31:39;13.70;99.90
19017;DHT22;9641;51.494;6.670;2022-10-16T05:34:07;13.70;99.90
19017;DHT22;9641;51.494;6.670;2022-10-16T05:36:36;13.70;99.90
19017;DHT22;9641;51.494;6.670;2022-10-16T05:39:04;13.60;99.90
19017;DHT22;9641;51.494;6.670;2022-10-16T05:41:34;13.60;99.90
19017;DHT22;9641;51.494;6.670;2022-10-16T05:44:04;13.60;99.90
19017;DHT22;9641;51.494;6.670;2022-10-16T05:46:32;13.60;99.90
19017;DHT22;9641;51.494;6.670;2022-10-16T05:49:00;13.60;99.90
19017;DHT22;9641;51.494;6.670;2022-10-16T05:51:27;13.50;99.90
19017;DHT22;9641;51.494;6.670;2022-10-16T05:53:56;13.50;99.90
19017;DHT22;9641;51.494;6.670;2022-10-16T05:56:25;13.40;99.90
19017;DHT22;9641;51.494;6.670;2022-10-16T05:58:53;13.40;99.90
19017;DHT22;9641;51.494;6.670;2022-10-16T06:01:20;13.40;99.90
19017;DHT22;9641;51.494;6.670;2022-10-16T06:03:49;13.40;99.90
19017;DHT22;9641;51.494;6.670;2022-10-16T06:06:21;13.40;99.90
19017;DHT22;9641;51.494;6.670;2022-10-16T06:08:49;13.40;99.90
19017;DHT22;9641;51.494;6.670;2022-10-16T06:11:20;13.40;99.90
19017;DHT22;9641;51.494;6.670;2022-10-16T06:13:49;13.40;99.90
19017;DHT22;9641;51.494;6.670;2022-10-16T06:16:18;13.40;99.90
19017;DHT22;9641;51.494;6.670;2022-10-16T06:18:46;13.50;99.90
19017;DHT22;9641;51.494;6.670;2022-10-16T06:21:18;13.50;99.90
19017;DHT22;9641;51.494;6.670;2022-10-16T06:23:50;13.50;99.90
19017;DHT22;9641;51.494;6.670;2022-10-16T06:26:20;13.50;99.90
19017;DHT22;9641;51.494;6.670;2022-10-16T06:28:48;13.50;99.90
19017;DHT22;9641;51.494;6.670;2022-10-16T06:31:16;13.50;99.90
19017;DHT22;9641;51.494;6.670;2022-10-16T06:33:44;13.50;99.90
19017;DHT22;9641;51.494;6.670;2022-10-16T06:36:15;13.50;99.90
19017;DHT22;9641;51.494;6.670;2022-10-16T06:38:44;13.50;99.90
19017;DHT22;9641;51.494;6.670;2022-10-16T06:41:13;13.50;99.90
19017;DHT22;9641;51.494;6.670;2022-10-16T06:43:42;13.40;99.90
19017;DHT22;9641;51.494;6.670;2022-10-16T06:46:11;13.40;99.90
19017;DHT22;9641;51.494;6.670;2022-10-16T06:48:40;13.40;99.90
19017;DHT22;9641;51.494;6.670;2022-10-16T06:51:09;13.40;99.90
19017;DHT22;9641;51.494;6.670;2022-10-16T06:53:40;13.40;99.90
19017;DHT22;9641;51.494;6.670;2022-10-16T06:56:08;13.40;99.90
19017;DHT22;9641;51.494;6.670;2022-10-16T06:58:36;13.40;99.90
19017;DHT22;9641;51.494;6.670;2022-10-16T07:01:07;13.40;99.90
19017;DHT22;9641;51.494;6.670;2022-10-16T07:03:36;13.40;99.90
19017;DHT22;9641;51.494;6.670;2022-10-16T07:06:09;13.40;99.90
19017;DHT22;9641;51.494;6.670;2022-10-16T07:08:40;13.30;99.90
19017;DHT22;9641;51.494;6.670;2022-10-16T07:11:10;13.30;99.90
19017;DHT22;9641;51.494;6.670;2022-10-16T07:13:39;13.30;99.90
19017;DHT22;9641;51.494;6.670;2022-10-16T07:16:13;13.30;99.90
19017;DHT22;9641;51.494;6.670;2022-10-16T07:18:45;13.30;99.90
19017;DHT22;9641;51.494;6.670;2022-10-16T07:21:25;13.30;99.90
19017;DHT22;9641;51.494;6.670;2022-10-16T07:23:59;13.40;99.90
19017;DHT22;9641;51.494;6.670;2022-10-16T07:26:31;13.40;99.90
19017;DHT22;9641;51.494;6.670;2022-10-16T07:29:01;13.40;99.90
19017;DHT22;9641;51.494;6.670;2022-10-16T07:31:43;13.50;99.90
19017;DHT22;9641;51.494;6.670;2022-10-16T07:34:22;13.60;99.90
19017;DHT22;9641;51.494;6.670;2022-10-16T07:36:49;13.60;99.90
19017;DHT22;9641;51.494;6.670;2022-10-16T07:39:17;13.70;99.90
19017;DHT22;9641;51.494;6.670;2022-10-16T07:41:45;13.70;99.90
19017;DHT22;9641;51.494;6.670;2022-10-16T07:44:12;13.80;99.90
19017;DHT22;9641;51.494;6.670;2022-10-16T07:47:00;13.90;99.90
19017;DHT22;9641;51.494;6.670;2022-10-16T07:49:38;13.90;99.90
19017;DHT22;9641;51.494;6.670;2022-10-16T07:52:13;13.90;99.90
19017;DHT22;9641;51.494;6.670;2022-10-16T07:54:52;13.90;99.90
19017;DHT22;9641;51.494;6.670;2022-10-16T07:57:26;14.00;99.90
19017;DHT22;9641;51.494;6.670;2022-10-16T08:05:53;14.20;99.90
19017;DHT22;9641;51.494;6.670;2022-10-16T08:08:39;14.30;99.90
19017;DHT22;9641;51.494;6.670;2022-10-16T08:11:31;14.40;99.90
19017;DHT22;9641;51.494;6.670;2022-10-16T08:14:00;14.40;99.90
19017;DHT22;9641;51.494;6.670;2022-10-16T08:19:12;14.50;99.90
19017;DHT22;9641;51.494;6.670;2022-10-16T08:27:00;14.70;99.90
19017;DHT22;9641;51.494;6.670;2022-10-16T08:29:28;14.70;99.90
19017;DHT22;9641;51.494;6.670;2022-10-16T08:31:56;14.70;99.90
19017;DHT22;9641;51.494;6.670;2022-10-16T08:34:24;14.80;99.90
19017;DHT22;9641;51.494;6.670;2022-10-16T08:36:53;14.90;99.90
19017;DHT22;9641;51.494;6.670;2022-10-16T08:39:20;15.00;99.90
19017;DHT22;9641;51.494;6.670;2022-10-16T08:42:22;15.00;99.90
19017;DHT22;9641;51.494;6.670;2022-10-16T08:45:06;15.00;99.90
19017;DHT22;9641;51.494;6.670;2022-10-16T08:47:43;15.10;99.90
19017;DHT22;9641;51.494;6.670;2022-10-16T08:50:13;15.20;99.90
19017;DHT22;9641;51.494;6.670;2022-10-16T08:52:43;15.30;99.90
19017;DHT22;9641;51.494;6.670;2022-10-16T08:58:20;15.40;99.90
19017;DHT22;9641;51.494;6.670;2022-10-16T09:00:56;15.40;99.90
19017;DHT22;9641;51.494;6.670;2022-10-16T09:04:25;15.40;99.90
19017;DHT22;9641;51.494;6.670;2022-10-16T09:12:36;15.60;99.90
19017;DHT22;9641;51.494;6.670;2022-10-16T09:15:16;15.60;99.90
19017;DHT22;9641;51.494;6.670;2022-10-16T09:18:00;15.70;99.90
19017;DHT22;9641;51.494;6.670;2022-10-16T09:20:42;15.70;99.90
19017;DHT22;9641;51.494;6.670;2022-10-16T09:23:17;15.80;99.90
19017;DHT22;9641;51.494;6.670;2022-10-16T09:25:49;15.80;99.90
19017;DHT22;9641;51.494;6.670;2022-10-16T09:28:18;15.90;99.90
19017;DHT22;9641;51.494;6.670;2022-10-16T09:30:47;15.90;99.90
19017;DHT22;9641;51.494;6.670;2022-10-16T09:33:16;16.10;99.90
19017;DHT22;9641;51.494;6.670;2022-10-16T09:35:45;16.20;99.90
19017;DHT22;9641;51.494;6.670;2022-10-16T09:38:27;16.30;99.90
19017;DHT22;9641;51.494;6.670;2022-10-16T09:40:55;16.40;99.90
19017;DHT22;9641;51.494;6.670;2022-10-16T09:43:25;16.40;99.90
19017;DHT22;9641;51.494;6.670;2022-10-16T09:46:03;16.40;99.90
19017;DHT22;9641;51.494;6.670;2022-10-16T09:48:35;16.50;99.90
19017;DHT22;9641;51.494;6.670;2022-10-16T09:51:05;16.70;99.90
19017;DHT22;9641;51.494;6.670;2022-10-16T09:53:42;16.80;99.90
19017;DHT22;9641;51.494;6.670;2022-10-16T09:56:10;16.90;48.00
19017;DHT22;9641;51.494;6.670;2022-10-16T09:58:42;16.90;1.00
19017;DHT22;9641;51.494;6.670;2022-10-16T10:01:14;16.90;1.00
19017;DHT22;9641;51.494;6.670;2022-10-16T10:03:42;16.90;1.00
19017;DHT22;9641;51.494;6.670;2022-10-16T10:06:18;16.90;1.00
19017;DHT22;9641;51.494;6.670;2022-10-16T10:09:02;16.90;1.00
19017;DHT22;9641;51.494;6.670;2022-10-16T10:11:50;16.90;1.00
19017;DHT22;9641;51.494;6.670;2022-10-16T10:14:20;17.00;1.00
19017;DHT22;9641;51.494;6.670;2022-10-16T10:16:50;17.10;1.00
19017;DHT22;9641;51.494;6.670;2022-10-16T10:19:21;17.20;1.00
19017;DHT22;9641;51.494;6.670;2022-10-16T10:21:49;17.30;1.00
19017;DHT22;9641;51.494;6.670;2022-10-16T10:24:18;17.40;1.00
19017;DHT22;9641;51.494;6.670;2022-10-16T10:26:51;17.60;1.00
19017;DHT22;9641;51.494;6.670;2022-10-16T10:29:34;17.70;1.00
19017;DHT22;9641;51.494;6.670;2022-10-16T10:32:13;17.60;99.90
19017;DHT22;9641;51.494;6.670;2022-10-16T10:34:55;17.70;99.90
19017;DHT22;9641;51.494;6.670;2022-10-16T10:37:49;17.70;99.90
19017;DHT22;9641;51.494;6.670;2022-10-16T10:40:28;17.90;1.00
19017;DHT22;9641;51.494;6.670;2022-10-16T10:42:59;18.10;54.10
19017;DHT22;9641;51.494;6.670;2022-10-16T10:45:40;18.20;99.90
19017;DHT22;9641;51.494;6.670;2022-10-16T10:48:21;18.20;1.00
19017;DHT22;9641;51.494;6.670;2022-10-16T10:50:52;18.20;1.00
19017;DHT22;9641;51.494;6.670;2022-10-16T10:53:33;18.30;99.90
19017;DHT22;9641;51.494;6.670;2022-10-16T10:56:13;18.50;99.90
19017;DHT22;9641;51.494;6.670;2022-10-16T10:58:56;18.60;99.90
19017;DHT22;9641;51.494;6.670;2022-10-16T11:01:34;18.80;1.00
19017;DHT22;9641;51.494;6.670;2022-10-16T11:04:25;19.10;38.80
19017;DHT22;9641;51.494;6.670;2022-10-16T11:06:59;19.40;1.00
19017;DHT22;9641;51.494;6.670;2022-10-16T11:09:31;19.80;99.90
19017;DHT22;9641;51.494;6.670;2022-10-16T11:12:06;19.90;1.00
19017;DHT22;9641;51.494;6.670;2022-10-16T11:14:43;19.90;1.00
19017;DHT22;9641;51.494;6.670;2022-10-16T11:17:16;20.20;58.40
19017;DHT22;9641;51.494;6.670;2022-10-16T11:19:54;20.20;1.00
19017;DHT22;9641;51.494;6.670;2022-10-16T11:22:27;20.30;1.00
19017;DHT22;9641;51.494;6.670;2022-10-16T11:25:02;20.70;1.00
19017;DHT22;9641;51.494;6.670;2022-10-16T11:27:39;21.00;99.90
19017;DHT22;9641;51.494;6.670;2022-10-16T11:30:15;21.10;99.90
19017;DHT22;9641;51.494;6.670;2022-10-16T11:32:52;21.10;99.90
19017;DHT22;9641;51.494;6.670;2022-10-16T11:35:53;21.30;44.40
19017;DHT22;9641;51.494;6.670;2022-10-16T11:38:31;21.40;1.00
19017;DHT22;9641;51.494;6.670;2022-10-16T11:41:08;21.40;1.00
19017;DHT22;9641;51.494;6.670;2022-10-16T11:43:40;21.20;1.00
19017;DHT22;9641;51.494;6.670;2022-10-16T11:46:12;21.40;1.00
19017;DHT22;9641;51.494;6.670;2022-10-16T11:48:45;21.30;1.00
19017;DHT22;9641;51.494;6.670;2022-10-16T11:51:24;21.30;1.00
19017;DHT22;9641;51.494;6.670;2022-10-16T11:54:00;22.10;1.00
19017;DHT22;9641;51.494;6.670;2022-10-16T11:56:30;22.90;1.00
19017;DHT22;9641;51.494;6.670;2022-10-16T11:59:02;23.40;1.00
19017;DHT22;9641;51.494;6.670;2022-10-16T12:01:37;23.90;1.00
19017;DHT22;9641;51.494;6.670;2022-10-16T12:04:21;24.30;1.00
19017;DHT22;9641;51.494;6.670;2022-10-16T12:07:04;24.80;1.00
19017;DHT22;9641;51.494;6.670;2022-10-16T12:09:47;25.10;1.00
19017;DHT22;9641;51.494;6.670;2022-10-16T12:12:26;25.50;1.00
19017;DHT22;9641;51.494;6.670;2022-10-16T12:15:22;25.50;1.00
19017;DHT22;9641;51.494;6.670;2022-10-16T12:18:02;25.70;1.00
19017;DHT22;9641;51.494;6.670;2022-10-16T12:20:39;25.60;1.00
19017;DHT22;9641;51.494;6.670;2022-10-16T12:40:31;23.80;1.00
19017;DHT22;9641;51.494;6.670;2022-10-16T12:43:38;23.60;1.00
19017;DHT22;9641;51.494;6.670;2022-10-16T12:46:35;23.80;1.00
19017;DHT22;9641;51.494;6.670;2022-10-16T12:49:47;24.20;1.00
19017;DHT22;9641;51.494;6.670;2022-10-16T12:59:58;25.90;1.00
19017;DHT22;9641;51.494;6.670;2022-10-16T13:03:25;27.30;1.00
19017;DHT22;9641;51.494;6.670;2022-10-16T13:06:27;28.20;1.00
19017;DHT22;9641;51.494;6.670;2022-10-16T13:09:27;28.70;99.90
19017;DHT22;9641;51.494;6.670;2022-10-16T13:12:18;29.70;99.90
19017;DHT22;9641;51.494;6.670;2022-10-16T13:17:46;30.70;99.90
19017;DHT22;9641;51.494;6.670;2022-10-16T13:20:34;31.00;99.90
19017;DHT22;9641;51.494;6.670;2022-10-16T13:23:13;31.00;99.90
19017;DHT22;9641;51.494;6.670;2022-10-16T13:25:50;31.10;99.90
19017;DHT22;9641;51.494;6.670;2022-10-16T13:28:27;30.30;99.90
19017;DHT22;9641;51.494;6.670;2022-10-16T13:30:56;29.10;99.90
19017;DHT22;9641;51.494;6.670;2022-10-16T13:33:31;27.60;99.90
19017;DHT22;9641;51.494;6.670;2022-10-16T13:35:59;25.90;99.90
19017;DHT22;9641;51.494;6.670;2022-10-16T13:38:27;24.50;99.90
19017;DHT22;9641;51.494;6.670;2022-10-16T13:41:00;23.30;99.90
19017;DHT22;9641;51.494;6.670;2022-10-16T13:43:35;22.40;99.90
19017;DHT22;9641;51.494;6.670;2022-10-16T13:46:12;21.90;99.90
19017;DHT22;9641;51.494;6.670;2022-10-16T13:53:21;21.10;99.90
19017;DHT22;9641;51.494;6.670;2022-10-16T13:56:10;21.40;99.90
19017;DHT22;9641;51.494;6.670;2022-10-16T13:59:04;22.60;99.90
19017;DHT22;9641;51.494;6.670;2022-10-16T14:01:51;23.40;99.90
19017;DHT22;9641;51.494;6.670;2022-10-16T14:05:18;24.10;99.90
19017;DHT22;9641;51.494;6.670;2022-10-16T14:08:10;24.20;99.90
19017;DHT22;9641;51.494;6.670;2022-10-16T14:11:02;23.80;99.90
19017;DHT22;9641;51.494;6.670;2022-10-16T14:13:40;23.30;99.90
19017;DHT22;9641;51.494;6.670;2022-10-16T14:16:21;22.40;99.90
19017;DHT22;9641;51.494;6.670;2022-10-16T14:18:56;21.50;99.90
19017;DHT22;9641;51.494;6.670;2022-10-16T14:21:29;21.00;99.90
19017;DHT22;9641;51.494;6.670;2022-10-16T14:24:11;20.80;99.90
19017;DHT22;9641;51.494;6.670;2022-10-16T14:26:53;20.50;99.90
19017;DHT22;9641;51.494;6.670;2022-10-16T14:29:24;20.40;1.00
19017;DHT22;9641;51.494;6.670;2022-10-16T14:32:00;20.50;1.00
19017;DHT22;9641;51.494;6.670;2022-10-16T14:34:31;20.80;1.00
19017;DHT22;9641;51.494;6.670;2022-10-16T14:37:08;20.70;1.00
19017;DHT22;9641;51.494;6.670;2022-10-16T14:39:41;20.60;1.00
19017;DHT22;9641;51.494;6.670;2022-10-16T14:42:16;20.40;1.00
19017;DHT22;9641;51.494;6.670;2022-10-16T14:44:55;20.20;99.90
19017;DHT22;9641;51.494;6.670;2022-10-16T14:47:25;20.00;1.00
19017;DHT22;9641;51.494;6.670;2022-10-16T14:49:55;19.80;1.00
19017;DHT22;9641;51.494;6.670;2022-10-16T14:52:25;19.80;1.00
19017;DHT22;9641;51.494;6.670;2022-10-16T14:54:52;19.80;1.00
19017;DHT22;9641;51.494;6.670;2022-10-16T14:57:24;19.90;1.00
19017;DHT22;9641;51.494;6.670;2022-10-16T15:00:06;19.90;99.90
19017;DHT22;9641;51.494;6.670;2022-10-16T15:02:41;19.90;79.60
19017;DHT22;9641;51.494;6.670;2022-10-16T15:05:13;19.80;1.00
19017;DHT22;9641;51.494;6.670;2022-10-16T15:07:43;19.70;1.00
19017;DHT22;9641;51.494;6.670;2022-10-16T15:10:15;19.60;99.90
19017;DHT22;9641;51.494;6.670;2022-10-16T15:15:43;19.40;99.90
19017;DHT22;9641;51.494;6.670;2022-10-16T15:18:30;19.30;1.00
19017;DHT22;9641;51.494;6.670;2022-10-16T15:25:35;19.30;99.90
19017;DHT22;9641;51.494;6.670;2022-10-16T15:34:08;19.10;1.00
19017;DHT22;9641;51.494;6.670;2022-10-16T15:36:40;19.00;1.00
19017;DHT22;9641;51.494;6.670;2022-10-16T15:39:14;18.90;1.00
19017;DHT22;9641;51.494;6.670;2022-10-16T15:41:42;18.80;1.00
19017;DHT22;9641;51.494;6.670;2022-10-16T15:44:09;18.70;99.90
19017;DHT22;9641;51.494;6.670;2022-10-16T15:46:38;18.70;99.90
19017;DHT22;9641;51.494;6.670;2022-10-16T15:49:18;18.50;1.00
19017;DHT22;9641;51.494;6.670;2022-10-16T15:54:32;18.40;1.00
19017;DHT22;9641;51.494;6.670;2022-10-16T15:57:29;18.40;1.00
19017;DHT22;9641;51.494;6.670;2022-10-16T15:59:58;18.30;1.00
19017;DHT22;9641;51.494;6.670;2022-10-16T16:02:31;18.20;27.80
19017;DHT22;9641;51.494;6.670;2022-10-16T16:05:10;18.10;1.00
19017;DHT22;9641;51.494;6.670;2022-10-16T16:07:40;18.00;1.00
19017;DHT22;9641;51.494;6.670;2022-10-16T16:10:23;18.00;1.00
19017;DHT22;9641;51.494;6.670;2022-10-16T16:12:51;17.90;18.30
19017;DHT22;9641;51.494;6.670;2022-10-16T16:15:23;17.90;1.00
19017;DHT22;9641;51.494;6.670;2022-10-16T16:17:53;17.80;1.00
19017;DHT22;9641;51.494;6.670;2022-10-16T16:20:23;17.70;1.00
19017;DHT22;9641;51.494;6.670;2022-10-16T16:22:50;17.60;1.00
19017;DHT22;9641;51.494;6.670;2022-10-16T16:28:40;17.50;99.90
19017;DHT22;9641;51.494;6.670;2022-10-16T16:33:55;17.40;99.90
19017;DHT22;9641;51.494;6.670;2022-10-16T16:40:47;17.20;99.90
19017;DHT22;9641;51.494;6.670;2022-10-16T16:44:05;17.10;99.90
19017;DHT22;9641;51.494;6.670;2022-10-16T16:46:38;17.00;99.90
19017;DHT22;9641;51.494;6.670;2022-10-16T16:56:10;16.80;99.90
19017;DHT22;9641;51.494;6.670;2022-10-16T16:58:55;16.70;99.90
19017;DHT22;9641;51.494;6.670;2022-10-16T17:01:41;16.70;99.90
19017;DHT22;9641;51.494;6.670;2022-10-16T17:04:23;16.70;99.90
19017;DHT22;9641;51.494;6.670;2022-10-16T17:06:59;16.60;99.90
19017;DHT22;9641;51.494;6.670;2022-10-16T17:09:27;16.50;99.90
19017;DHT22;9641;51.494;6.670;2022-10-16T17:12:09;16.50;99.90
19017;DHT22;9641;51.494;6.670;2022-10-16T17:14:36;16.40;99.90
19017;DHT22;9641;51.494;6.670;2022-10-16T17:17:05;16.40;99.90
19017;DHT22;9641;51.494;6.670;2022-10-16T17:19:35;16.40;99.90
19017;DHT22;9641;51.494;6.670;2022-10-16T17:22:09;16.40;99.90
19017;DHT22;9641;51.494;6.670;2022-10-16T17:24:40;16.40;99.90
19017;DHT22;9641;51.494;6.670;2022-10-16T17:27:12;16.40;99.90
19017;DHT22;9641;51.494;6.670;2022-10-16T17:29:39;16.40;99.90
19017;DHT22;9641;51.494;6.670;2022-10-16T17:32:09;16.40;99.90
19017;DHT22;9641;51.494;6.670;2022-10-16T17:34:37;16.40;99.90
19017;DHT22;9641;51.494;6.670;2022-10-16T17:37:04;16.40;99.90
19017;DHT22;9641;51.494;6.670;2022-10-16T17:39:31;16.40;99.90
19017;DHT22;9641;51.494;6.670;2022-10-16T17:41:58;16.40;99.90
19017;DHT22;9641;51.494;6.670;2022-10-16T17:44:28;16.30;99.90
19017;DHT22;9641;51.494;6.670;2022-10-16T17:46:57;16.30;99.90
19017;DHT22;9641;51.494;6.670;2022-10-16T17:49:24;16.30;99.90
19017;DHT22;9641;51.494;6.670;2022-10-16T17:51:52;16.30;99.90
19017;DHT22;9641;51.494;6.670;2022-10-16T17:54:19;16.30;99.90
19017;DHT22;9641;51.494;6.670;2022-10-16T17:56:46;16.40;99.90
19017;DHT22;9641;51.494;6.670;2022-10-16T17:59:13;16.30;99.90
19017;DHT22;9641;51.494;6.670;2022-10-16T18:01:42;16.20;99.90